Time;durP1;ratioP1;P1;durP2;ratioP2;P2;SDS_P1;SDS_P2;PMS_P1;PMS_P2;Temp;Humidity;BMP_temperature;BMP_pressure;BME280_temperature;BME280_humidity;BME280_pressure;Samples;Min_cycle;Max_cycle;Signal;HPM_P1;HPM_P2
2022/01/06 00:00:53;;;;;;;22.02;4.95;;;;;;;1.55;100.00;101392.53;5266146;28;20516;-73
2022/01/06 00:03:26;;;;;;;33.47;4.93;;;;;;;1.45;100.00;101386.69;5267508;28;20032;-72
2022/01/06 00:06:03;;;;;;;25.70;4.55;;;;;;;1.44;100.00;101387.63;5271772;28;20051;-72
2022/01/06 00:08:35;;;;;;;27.13;4.93;;;;;;;1.45;100.00;101388.47;5266531;28;20547;-72
2022/01/06 00:11:09;;;;;;;28.27;4.93;;;;;;;1.46;100.00;101393.69;5261997;28;20033;-72
2022/01/06 00:13:50;;;;;;;31.23;6.55;;;;;;;1.38;100.00;101398.31;5271730;28;20432;-72
2022/01/06 00:17:36;;;;;;;28.05;5.35;;;;;;;1.36;100.00;101400.13;5260721;28;20021;-72
2022/01/06 00:25:02;;;;;;;27.23;6.03;;;;;;;1.29;100.00;101394.19;5268411;28;20041;-72
2022/01/06 00:27:33;;;;;;;24.73;5.32;;;;;;;1.23;100.00;101404.00;5264639;28;20033;-72
2022/01/06 00:30:05;;;;;;;26.30;4.72;;;;;;;1.28;100.00;101400.34;5262982;28;20115;-72
2022/01/06 00:32:36;;;;;;;27.83;5.75;;;;;;;1.32;100.00;101412.50;5263116;28;20033;-72
2022/01/06 00:35:08;;;;;;;24.15;5.10;;;;;;;1.12;100.00;101406.97;5271147;28;20032;-72
2022/01/06 00:37:39;;;;;;;28.40;5.30;;;;;;;1.19;100.00;101416.41;5269884;28;20279;-72
2022/01/06 00:40:11;;;;;;;28.45;5.32;;;;;;;1.12;100.00;101413.06;5263534;28;20486;-72
2022/01/06 00:42:42;;;;;;;29.17;5.82;;;;;;;1.16;100.00;101416.47;5269887;28;20029;-71
2022/01/06 00:45:14;;;;;;;27.67;5.63;;;;;;;1.12;100.00;101422.72;5272312;28;20513;-71
2022/01/06 00:47:45;;;;;;;29.65;5.78;;;;;;;0.96;100.00;101420.53;5272597;28;20592;-71
2022/01/06 00:50:16;;;;;;;25.77;5.30;;;;;;;0.96;100.00;101428.41;5267409;28;20029;-71
2022/01/06 00:52:47;;;;;;;29.30;5.18;;;;;;;0.94;100.00;101422.34;5266001;28;20052;-71
2022/01/06 00:55:19;;;;;;;25.90;5.45;;;;;;;1.02;100.00;101426.50;5270577;28;20111;-71
2022/01/06 00:57:55;;;;;;;32.28;5.63;;;;;;;0.91;100.00;101429.44;5274091;28;20035;-71
2022/01/06 01:00:29;;;;;;;24.08;5.13;;;;;;;0.93;100.00;101425.84;5272468;28;20021;-71
2022/01/06 01:03:01;;;;;;;28.73;5.30;;;;;;;0.96;100.00;101427.53;5269022;28;20036;-71
2022/01/06 01:05:32;;;;;;;27.25;5.32;;;;;;;0.88;100.00;101425.13;5272088;28;20043;-71
2022/01/06 01:08:04;;;;;;;29.23;5.25;;;;;;;0.85;100.00;101432.22;5274073;28;20032;-71
2022/01/06 01:10:36;;;;;;;28.38;5.32;;;;;;;0.90;100.00;101433.81;5267424;28;20028;-71
2022/01/06 01:13:12;;;;;;;19.80;4.80;;;;;;;0.83;100.00;101436.66;5269256;28;20036;-71
2022/01/06 01:15:53;;;;;;;21.52;4.95;;;;;;;0.83;100.00;101432.25;5264737;28;20499;-71
2022/01/06 01:18:25;;;;;;;23.33;5.07;;;;;;;0.77;100.00;101427.19;5269042;28;20669;-71
2022/01/06 01:20:57;;;;;;;30.35;4.90;;;;;;;0.64;100.00;101436.28;5265386;28;20044;-71
2022/01/06 01:23:29;;;;;;;30.35;5.03;;;;;;;0.64;100.00;101431.03;5268846;28;20081;-71
2022/01/06 01:26:00;;;;;;;27.83;6.20;;;;;;;0.58;100.00;101425.00;5273341;28;20486;-71
2022/01/06 01:28:42;;;;;;;23.88;5.35;;;;;;;0.61;100.00;101431.09;5270213;28;20066;-71
2022/01/06 01:33:51;;;;;;;24.17;5.03;;;;;;;0.61;100.00;101438.97;5274259;28;20032;-70
2022/01/06 01:36:22;;;;;;;27.33;5.18;;;;;;;0.57;100.00;101441.66;5261712;28;20119;-70
2022/01/06 01:38:54;;;;;;;25.17;5.30;;;;;;;0.46;100.00;101445.47;5261159;28;20116;-71
2022/01/06 01:41:25;;;;;;;29.05;4.97;;;;;;;0.43;100.00;101441.16;5269727;28;20027;-70
2022/01/06 01:43:57;;;;;;;24.13;5.22;;;;;;;0.45;100.00;101456.88;5263797;28;20035;-70
2022/01/06 01:46:29;;;;;;;25.70;4.75;;;;;;;0.46;100.00;101448.97;5267948;28;20036;-70
2022/01/06 01:51:51;;;;;;;26.13;5.20;;;;;;;0.38;100.00;101466.66;5266418;28;20375;-70
2022/01/06 01:54:23;;;;;;;28.67;5.25;;;;;;;0.38;100.00;101467.53;5272732;28;20402;-70
2022/01/06 01:56:54;;;;;;;30.95;6.95;;;;;;;0.36;100.00;101476.31;5264452;28;20032;-70
2022/01/06 01:59:26;;;;;;;26.52;4.57;;;;;;;0.29;100.00;101485.22;5269604;28;20048;-70
2022/01/06 02:01:57;;;;;;;29.23;5.07;;;;;;;0.25;100.00;101483.59;5260643;28;20028;-70
2022/01/06 02:04:28;;;;;;;25.85;5.05;;;;;;;0.32;100.00;101487.78;5267146;28;20073;-70
2022/01/06 02:07:00;;;;;;;28.95;6.55;;;;;;;0.21;100.00;101487.19;5266989;28;20032;-70
2022/01/06 02:09:31;;;;;;;29.30;5.25;;;;;;;0.18;100.00;101493.38;5257846;28;20033;-70
2022/01/06 02:12:02;;;;;;;27.88;5.55;;;;;;;0.25;100.00;101489.72;5269438;28;20076;-71
2022/01/06 02:14:35;;;;;;;31.55;4.72;;;;;;;0.19;100.00;101487.22;5265791;28;20032;-69
2022/01/06 02:17:06;;;;;;;31.40;4.90;;;;;;;0.11;100.00;101490.00;5262505;28;20046;-69
2022/01/06 02:19:37;;;;;;;31.20;5.28;;;;;;;0.08;100.00;101487.47;5268536;28;20032;-69
2022/01/06 02:22:08;;;;;;;25.88;5.28;;;;;;;0.12;100.00;101499.63;5266548;28;20029;-69
2022/01/06 02:24:40;;;;;;;29.58;4.70;;;;;;;0.13;100.00;101489.97;5268400;28;20036;-69
2022/01/06 02:27:11;;;;;;;28.90;4.78;;;;;;;0.15;100.00;101493.44;5266346;28;20033;-70
2022/01/06 02:29:43;;;;;;;24.45;4.88;;;;;;;0.07;100.00;101493.59;5268495;28;20041;-70
2022/01/06 02:32:15;;;;;;;29.85;5.50;;;;;;;0.06;100.00;101497.16;5263142;28;20074;-70
2022/01/06 02:34:47;;;;;;;27.75;6.03;;;;;;;0.02;100.00;101503.34;5273114;28;20059;-69
2022/01/06 02:37:18;;;;;;;29.15;4.72;;;;;;;-0.03;100.00;101494.72;5266423;28;20162;-69
2022/01/06 02:39:49;;;;;;;31.58;5.45;;;;;;;0.00;100.00;101505.16;5272120;28;20508;-69
2022/01/06 02:42:21;;;;;;;27.73;5.03;;;;;;;-0.10;100.00;101495.75;5260836;28;20479;-69
2022/01/06 02:44:52;;;;;;;24.95;4.75;;;;;;;-0.10;100.00;101496.59;5268926;28;20033;-69
2022/01/06 02:47:23;;;;;;;29.15;4.57;;;;;;;-0.05;100.00;101499.13;5270568;28;20530;-69
2022/01/06 02:49:54;;;;;;;31.45;5.13;;;;;;;-0.16;100.00;101491.50;5271210;28;20033;-69
2022/01/06 02:52:26;;;;;;;23.10;4.82;;;;;;;-0.10;100.00;101496.59;5271620;28;20040;-69
2022/01/06 02:54:57;;;;;;;21.13;5.07;;;;;;;-0.03;100.00;101500.81;5273210;28;20033;-69
2022/01/06 02:57:28;;;;;;;30.45;4.95;;;;;;;-0.09;100.00;101500.97;5271903;28;20036;-69
2022/01/06 03:00:00;;;;;;;23.90;4.63;;;;;;;-0.09;100.00;101500.97;5270826;28;20420;-69
2022/01/06 03:02:31;;;;;;;24.95;4.68;;;;;;;-0.20;100.00;101501.19;5264823;28;20129;-69
2022/01/06 03:05:03;;;;;;;22.25;5.20;;;;;;;-0.20;100.00;101498.56;5258781;28;20603;-69
2022/01/06 03:07:34;;;;;;;36.13;4.85;;;;;;;-0.24;100.00;101501.28;5258806;28;20463;-69
2022/01/06 03:10:09;;;;;;;27.48;5.15;;;;;;;-0.24;100.00;101510.00;5261600;28;20032;-69
2022/01/06 03:12:43;;;;;;;36.63;5.35;;;;;;;-0.32;100.00;101511.94;5260411;28;20155;-69
2022/01/06 03:15:17;;;;;;;28.70;4.63;;;;;;;-0.26;100.00;101503.94;5259233;28;20032;-69
2022/01/06 03:17:52;;;;;;;29.33;5.13;;;;;;;-0.30;100.00;101514.53;5267853;28;20301;-69
2022/01/06 03:20:26;;;;;;;33.25;5.07;;;;;;;-0.35;100.00;101513.75;5261645;28;20017;-69
2022/01/06 03:22:58;;;;;;;33.73;5.37;;;;;;;-0.40;100.00;101519.09;5258581;28;20078;-69
2022/01/06 03:25:30;;;;;;;25.38;4.40;;;;;;;-0.26;100.00;101522.28;5260963;28;20074;-69
2022/01/06 03:28:01;;;;;;;25.17;4.53;;;;;;;-0.23;100.00;101521.34;5264340;28;20376;-69
2022/01/06 03:30:32;;;;;;;25.55;5.65;;;;;;;-0.27;100.00;101517.97;5263834;28;20024;-69
2022/01/06 03:33:04;;;;;;;33.30;5.00;;;;;;;-0.29;100.00;101532.84;5270955;28;20032;-69
2022/01/06 03:35:35;;;;;;;26.48;4.90;;;;;;;-0.32;100.00;101534.69;5263699;28;20371;-69
2022/01/06 03:38:06;;;;;;;25.85;4.72;;;;;;;-0.36;100.00;101535.63;5272301;28;20028;-69
2022/01/06 03:40:39;;;;;;;27.58;4.57;;;;;;;-0.30;100.00;101535.50;5262850;28;20024;-69
2022/01/06 03:43:10;;;;;;;29.58;4.75;;;;;;;-0.33;100.00;101539.03;5270194;28;20111;-69
2022/01/06 03:45:41;;;;;;;29.75;4.90;;;;;;;-0.22;100.00;101537.06;5260835;28;20526;-69
2022/01/06 03:48:13;;;;;;;26.95;5.43;;;;;;;-0.11;100.00;101547.34;5266964;28;20036;-69
2022/01/06 03:50:44;;;;;;;26.85;5.35;;;;;;;-0.01;100.00;101535.75;5264899;28;20021;-69
2022/01/06 03:53:15;;;;;;;30.30;5.68;;;;;;;-0.02;100.00;101534.03;5263353;28;20486;-69
2022/01/06 03:55:47;;;;;;;26.95;5.10;;;;;;;-0.08;100.00;101535.91;5266272;28;20027;-69
2022/01/06 03:58:18;;;;;;;23.20;4.85;;;;;;;-0.07;100.00;101542.91;5264524;28;20091;-69
2022/01/06 04:00:49;;;;;;;29.85;5.10;;;;;;;-0.06;100.00;101539.38;5263081;28;20133;-69
2022/01/06 04:03:20;;;;;;;33.92;5.10;;;;;;;0.00;100.00;101531.38;5268605;28;20673;-69
2022/01/06 04:05:52;;;;;;;30.58;4.53;;;;;;;-0.01;100.00;101542.75;5268173;28;20474;-69
2022/01/06 04:08:23;;;;;;;23.92;4.32;;;;;;;0.03;100.00;101531.31;5262518;28;20364;-69
2022/01/06 04:10:54;;;;;;;25.95;4.82;;;;;;;-0.02;100.00;101527.91;5259892;28;20471;-69
2022/01/06 04:13:25;;;;;;;22.67;4.25;;;;;;;-0.02;100.00;101538.41;5262974;28;20056;-69
2022/01/06 04:15:59;;;;;;;29.95;4.70;;;;;;;-0.06;100.00;101532.38;5263306;28;20066;-69
2022/01/06 04:18:30;;;;;;;37.95;5.65;;;;;;;-0.09;100.00;101544.69;5270794;28;20524;-69
2022/01/06 04:21:01;;;;;;;29.55;5.05;;;;;;;-0.10;100.00;101549.06;5265166;28;20426;-69
2022/01/06 04:23:33;;;;;;;26.02;4.90;;;;;;;-0.17;100.00;101546.59;5262067;28;20072;-68
2022/01/06 04:26:05;;;;;;;35.28;5.20;;;;;;;-0.10;100.00;101558.69;5269590;28;20040;-68
2022/01/06 04:28:37;;;;;;;33.55;4.97;;;;;;;-0.06;100.00;101563.84;5264409;28;20570;-68
2022/01/06 04:31:09;;;;;;;36.28;4.95;;;;;;;-0.09;100.00;101563.06;5259875;28;20079;-67
2022/01/06 04:33:40;;;;;;;36.70;4.88;;;;;;;-0.19;100.00;101562.38;5265170;28;20032;-67
2022/01/06 04:36:12;;;;;;;31.58;5.05;;;;;;;-0.23;100.00;101558.94;5267139;28;20024;-67
2022/01/06 04:38:43;;;;;;;36.45;5.25;;;;;;;-0.26;100.00;101552.91;5262116;28;20035;-67
2022/01/06 04:41:14;;;;;;;25.85;4.95;;;;;;;-0.24;100.00;101561.59;5267971;28;20029;-67
2022/01/06 04:43:45;;;;;;;22.70;4.18;;;;;;;-0.28;100.00;101560.78;5265515;28;20039;-67
2022/01/06 04:46:19;;;;;;;29.80;4.85;;;;;;;-0.36;100.00;101565.34;5269817;28;20471;-67
2022/01/06 04:48:50;;;;;;;27.08;4.40;;;;;;;-0.44;100.00;101575.06;5258882;28;20032;-67
2022/01/06 04:51:21;;;;;;;30.20;5.00;;;;;;;-0.43;100.00;101568.97;5258358;28;20032;-67
2022/01/06 04:53:53;;;;;;;25.90;4.43;;;;;;;-0.46;100.00;101571.63;5267787;28;20036;-67
2022/01/06 04:56:24;;;;;;;28.50;4.80;;;;;;;-0.43;100.00;101571.56;5264226;28;20050;-67
2022/01/06 04:58:55;;;;;;;25.08;4.72;;;;;;;-0.45;100.00;101578.63;5259492;28;20070;-67
2022/01/06 05:01:27;;;;;;;27.58;4.95;;;;;;;-0.51;100.00;101576.97;5263786;28;20021;-67
2022/01/06 05:03:58;;;;;;;27.73;5.43;;;;;;;-0.52;100.00;101580.47;5266730;28;20087;-67
2022/01/06 05:06:29;;;;;;;34.75;5.63;;;;;;;-0.58;100.00;101574.50;5261857;28;20471;-67
2022/01/06 05:09:01;;;;;;;30.13;6.03;;;;;;;-0.57;100.00;101584.94;5261607;28;20035;-67
2022/01/06 05:11:32;;;;;;;27.85;5.07;;;;;;;-0.53;100.00;101589.25;5264439;28;20041;-67
2022/01/06 05:14:03;;;;;;;23.30;4.55;;;;;;;-0.58;100.00;101583.22;5264707;28;20041;-67
2022/01/06 05:16:34;;;;;;;28.20;5.28;;;;;;;-0.56;100.00;101599.75;5264099;28;20025;-67
2022/01/06 05:19:06;;;;;;;25.55;5.20;;;;;;;-0.61;100.00;101589.38;5271658;28;20388;-69
2022/01/06 05:21:40;;;;;;;28.58;6.13;;;;;;;-0.71;100.00;101600.03;5261971;28;20563;-69
2022/01/06 05:24:16;;;;;;;27.75;5.30;;;;;;;-0.66;100.00;101601.69;5263679;28;20036;-69
2022/01/06 05:26:47;;;;;;;28.75;6.03;;;;;;;-0.73;100.00;101602.72;5261561;28;20082;-69
2022/01/06 05:29:18;;;;;;;24.42;5.05;;;;;;;-0.72;100.00;101604.44;5263270;28;20021;-69
2022/01/06 05:31:50;;;;;;;32.08;5.47;;;;;;;-0.63;100.00;101606.03;5263825;28;20113;-68
2022/01/06 05:34:21;;;;;;;22.42;5.25;;;;;;;-0.66;100.00;101611.31;5265210;28;20032;-68
2022/01/06 05:36:52;;;;;;;25.30;5.45;;;;;;;-0.77;100.00;101608.88;5258567;28;20372;-68
2022/01/06 05:39:24;;;;;;;26.40;5.45;;;;;;;-0.77;100.00;101611.50;5263144;28;22242;-68
2022/01/06 05:41:55;;;;;;;24.20;4.75;;;;;;;-0.77;100.00;101624.59;5267944;28;20031;-68
2022/01/06 05:44:27;;;;;;;24.70;5.28;;;;;;;-0.78;100.00;101619.41;5268846;28;20052;-68
2022/01/06 05:46:59;;;;;;;19.67;4.90;;;;;;;-0.84;100.00;101628.22;5262606;28;20518;-68
2022/01/06 05:49:30;;;;;;;30.77;5.20;;;;;;;-0.79;100.00;101626.38;5262204;28;20035;-68
2022/01/06 05:52:02;;;;;;;39.95;6.20;;;;;;;-0.93;100.00;101631.84;5267730;28;20516;-68
2022/01/06 05:54:33;;;;;;;29.55;5.38;;;;;;;-0.95;100.00;101631.00;5265151;28;20060;-68
2022/01/06 05:57:04;;;;;;;26.17;5.65;;;;;;;-0.97;100.00;101634.56;5264576;28;20398;-68
2022/01/06 05:59:35;;;;;;;23.55;5.32;;;;;;;-0.88;100.00;101630.03;5264150;28;20387;-68
2022/01/06 06:02:07;;;;;;;21.60;5.18;;;;;;;-0.87;100.00;101636.13;5268367;28;20027;-68
2022/01/06 06:04:38;;;;;;;31.15;6.20;;;;;;;-1.01;100.00;101638.97;5266518;28;20121;-69
2022/01/06 06:07:09;;;;;;;26.30;6.43;;;;;;;-0.94;100.00;101653.72;5266970;28;20029;-68
2022/01/06 06:09:40;;;;;;;27.77;5.35;;;;;;;-1.00;100.00;101649.44;5264184;28;20487;-68
2022/01/06 06:12:12;;;;;;;35.53;6.70;;;;;;;-1.08;100.00;101647.81;5263424;28;20037;-68
2022/01/06 06:14:43;;;;;;;29.48;5.68;;;;;;;-1.06;100.00;101659.13;5259389;28;20483;-68
2022/01/06 06:17:14;;;;;;;26.20;5.28;;;;;;;-1.14;100.00;101653.13;5266713;28;20033;-68
2022/01/06 06:19:45;;;;;;;24.83;5.53;;;;;;;-1.16;100.00;101653.16;5263855;28;20111;-68
2022/01/06 06:22:17;;;;;;;29.70;6.45;;;;;;;-1.10;100.00;101663.53;5265197;28;20021;-68
2022/01/06 06:24:48;;;;;;;25.67;6.18;;;;;;;-1.15;100.00;101661.88;5263860;28;20028;-68
2022/01/06 06:27:19;;;;;;;29.23;7.05;;;;;;;-1.15;100.00;101664.50;5265853;28;20111;-69
2022/01/06 06:29:51;;;;;;;25.40;6.95;;;;;;;-1.17;100.00;101661.88;5262170;28;20127;-68
2022/01/06 06:32:22;;;;;;;31.65;7.75;;;;;;;-1.18;100.00;101665.41;5261484;28;20032;-68
2022/01/06 06:34:54;;;;;;;32.60;6.95;;;;;;;-1.17;100.00;101676.75;5263619;28;20064;-68
2022/01/06 06:37:25;;;;;;;32.17;7.07;;;;;;;-1.27;100.00;101678.63;5263166;28;20025;-68
2022/01/06 06:39:57;;;;;;;28.17;7.00;;;;;;;-1.21;100.00;101674.19;5258506;28;20556;-68
2022/01/06 06:42:29;;;;;;;27.10;7.05;;;;;;;-1.20;100.00;101675.03;5259266;28;20047;-68
2022/01/06 06:45:00;;;;;;;26.23;7.22;;;;;;;-1.28;100.00;101672.53;5262145;28;20114;-68
2022/01/06 06:47:32;;;;;;;29.75;7.55;;;;;;;-1.34;100.00;101675.25;5269913;28;20577;-68
2022/01/06 06:50:05;;;;;;;34.33;7.68;;;;;;;-1.33;100.00;101687.44;5269109;28;20036;-68
2022/01/06 06:52:36;;;;;;;32.08;7.93;;;;;;;-1.36;100.00;101681.38;5263985;28;20032;-68
2022/01/06 06:55:08;;;;;;;33.08;8.13;;;;;;;-1.35;100.00;101685.72;5265098;28;20887;-68
2022/01/06 06:57:40;;;;;;;31.15;7.45;;;;;;;-1.34;100.00;101695.28;5255703;28;20621;-68
2022/01/06 07:00:11;;;;;;;22.27;6.57;;;;;;;-1.29;100.00;101696.09;5266994;28;20112;-68
2022/01/06 07:02:43;;;;;;;24.83;6.18;;;;;;;-1.36;100.00;101699.69;5268965;28;20059;-68
2022/01/06 07:05:17;;;;;;;30.55;6.93;;;;;;;-1.36;100.00;101700.56;5269053;28;20114;-68
2022/01/06 07:07:48;;;;;;;26.60;7.18;;;;;;;-1.34;100.00;101703.16;5270297;28;20064;-69
2022/01/06 07:10:20;;;;;;;29.40;7.68;;;;;;;-1.36;100.00;101702.31;5271324;28;20123;-69
2022/01/06 07:12:51;;;;;;;27.48;6.80;;;;;;;-1.34;100.00;101709.28;5266316;28;20052;-69
2022/01/06 07:15:23;;;;;;;28.98;7.43;;;;;;;-1.35;100.00;101707.53;5271334;28;20032;-69
2022/01/06 07:17:54;;;;;;;32.58;8.60;;;;;;;-1.38;100.00;101721.53;5267590;28;20060;-69
2022/01/06 07:20:25;;;;;;;35.75;7.90;;;;;;;-1.35;100.00;101718.00;5267787;28;20119;-69
2022/01/06 07:22:57;;;;;;;27.23;8.18;;;;;;;-1.40;100.00;101722.41;5269196;28;20107;-69
2022/01/06 07:25:28;;;;;;;26.50;7.70;;;;;;;-1.34;100.00;101731.94;5265402;28;20029;-69
2022/01/06 07:27:59;;;;;;;32.97;8.68;;;;;;;-1.39;100.00;101729.41;5270598;28;20066;-69
2022/01/06 07:30:33;;;;;;;26.63;7.88;;;;;;;-1.38;100.00;101737.22;5270286;28;20040;-69
2022/01/06 07:33:05;;;;;;;35.60;8.23;;;;;;;-1.45;100.00;101734.72;5271993;28;20032;-69
2022/01/06 07:35:36;;;;;;;44.55;9.27;;;;;;;-1.44;100.00;101736.44;5269599;28;20450;-69
2022/01/06 07:38:07;;;;;;;35.92;8.63;;;;;;;-1.45;100.00;101738.19;5271956;28;20269;-69
2022/01/06 07:40:38;;;;;;;30.52;8.68;;;;;;;-1.42;100.00;101745.13;5269936;28;20025;-69
2022/01/06 07:43:10;;;;;;;35.80;8.88;;;;;;;-1.51;100.00;101740.88;5268837;28;20032;-69
2022/01/06 07:45:42;;;;;;;36.47;8.45;;;;;;;-1.47;100.00;101736.47;5268789;28;20032;-69
2022/01/06 07:48:18;;;;;;;30.75;8.45;;;;;;;-1.51;100.00;101745.25;5270526;28;20367;-69
2022/01/06 07:50:49;;;;;;;34.58;10.38;;;;;;;-1.50;100.00;101741.75;5268969;28;20497;-69
2022/01/06 07:53:20;;;;;;;160.73;88.00;;;;;;;-1.45;100.00;101745.19;5266417;28;20032;-69
2022/01/06 07:55:52;;;;;;;190.88;101.93;;;;;;;-1.34;100.00;101743.31;5268249;28;20045;-69
2022/01/06 07:58:24;;;;;;;69.10;39.25;;;;;;;-1.27;100.00;101744.06;5269514;28;20032;-69
2022/01/06 08:00:56;;;;;;;46.15;19.30;;;;;;;-1.19;100.00;101744.84;5262455;28;20043;-69
2022/01/06 08:03:27;;;;;;;33.40;10.65;;;;;;;-1.17;100.00;101742.19;5269714;28;20470;-69
2022/01/06 08:05:58;;;;;;;34.50;9.57;;;;;;;-1.13;100.00;101752.63;5264243;28;20043;-69
2022/01/06 08:08:29;;;;;;;27.67;9.00;;;;;;;-1.11;100.00;101756.09;5266010;28;20039;-69
2022/01/06 08:11:01;;;;;;;37.72;10.35;;;;;;;-1.19;100.00;101756.19;5270129;28;20040;-69
2022/01/06 08:13:32;;;;;;;34.17;10.70;;;;;;;-1.11;100.00;101752.59;5270534;28;20056;-69
2022/01/06 08:16:04;;;;;;;36.10;11.55;;;;;;;-1.15;100.00;101758.75;5271815;28;20060;-69
2022/01/06 08:18:35;;;;;;;38.28;12.38;;;;;;;-1.18;100.00;101754.44;5268033;28;20025;-69
2022/01/06 08:21:07;;;;;;;37.33;13.02;;;;;;;-1.17;100.00;101764.00;5271346;28;20059;-70
2022/01/06 08:23:38;;;;;;;31.98;12.50;;;;;;;-1.20;100.00;101751.84;5270581;28;20113;-69
2022/01/06 08:26:09;;;;;;;40.33;13.35;;;;;;;-1.17;100.00;101761.38;5274417;28;20550;-69
2022/01/06 08:28:42;;;;;;;43.63;13.45;;;;;;;-1.17;100.00;101764.00;5270686;28;20036;-69
2022/01/06 08:31:17;;;;;;;38.95;13.45;;;;;;;-1.20;100.00;101764.91;5270114;28;20601;-69
2022/01/06 08:33:48;;;;;;;32.85;13.43;;;;;;;-1.22;100.00;101764.06;5272081;28;20410;-69
2022/01/06 08:36:19;;;;;;;44.33;14.93;;;;;;;-1.19;100.00;101766.66;5266760;28;20579;-69
2022/01/06 08:38:51;;;;;;;37.17;14.43;;;;;;;-1.12;100.00;101769.19;5275867;28;20029;-69
2022/01/06 08:41:22;;;;;;;52.88;15.30;;;;;;;-1.17;100.00;101766.63;5271419;28;20610;-69
2022/01/06 08:43:53;;;;;;;43.10;15.52;;;;;;;-1.14;100.00;101763.97;5269181;28;20041;-69
2022/01/06 08:46:24;;;;;;;41.25;15.63;;;;;;;-1.12;100.00;101766.59;5272946;28;20456;-69
2022/01/06 08:48:56;;;;;;;49.05;17.52;;;;;;;-1.08;100.00;101770.88;5271809;28;20541;-69
2022/01/06 08:51:27;;;;;;;49.78;17.23;;;;;;;-1.10;100.00;101773.53;5272737;28;20543;-69
2022/01/06 08:53:59;;;;;;;41.10;16.88;;;;;;;-1.02;100.00;101779.53;5273597;28;20063;-69
2022/01/06 08:56:30;;;;;;;43.35;17.60;;;;;;;-1.00;100.00;101788.25;5274084;28;20039;-69
2022/01/06 08:59:03;;;;;;;53.80;19.60;;;;;;;-0.96;100.00;101785.56;5272853;28;20044;-69
2022/01/06 09:01:34;;;;;;;52.53;20.13;;;;;;;-0.95;100.00;101780.31;5274484;28;20021;-69
2022/01/06 09:04:05;;;;;;;49.88;21.55;;;;;;;-0.96;100.00;101785.56;5272037;28;20397;-69
2022/01/06 09:06:36;;;;;;;48.65;19.90;;;;;;;-0.93;100.00;101788.16;5273258;28;20024;-69
2022/01/06 09:09:08;;;;;;;55.55;19.70;;;;;;;-0.93;100.00;101781.16;5274186;28;20098;-69
2022/01/06 09:11:39;;;;;;;54.30;21.05;;;;;;;-0.95;100.00;101788.19;5273877;28;20380;-69
2022/01/06 09:14:11;;;;;;;61.45;20.88;;;;;;;-0.92;100.00;101798.63;5270526;28;20397;-69
2022/01/06 09:16:42;;;;;;;56.35;22.10;;;;;;;-0.87;100.00;101802.03;5273344;28;20109;-69
2022/01/06 09:19:14;;;;;;;58.25;21.83;;;;;;;-0.90;100.00;101789.00;5272731;28;20044;-69
2022/01/06 09:21:45;;;;;;;67.88;21.33;;;;;;;-0.84;100.00;101802.00;5272718;28;20356;-69
2022/01/06 09:24:18;;;;;;;57.95;21.95;;;;;;;-0.74;100.00;101799.25;5268076;28;20521;-69
2022/01/06 09:26:49;;;;;;;56.72;22.38;;;;;;;-0.73;100.00;101801.84;5267336;28;20100;-69
2022/01/06 09:29:20;;;;;;;59.10;22.02;;;;;;;-0.76;100.00;101804.50;5271253;28;20033;-69
2022/01/06 09:31:52;;;;;;;62.15;21.50;;;;;;;-0.70;100.00;101809.66;5270461;28;20079;-69
2022/01/06 09:34:23;;;;;;;61.55;22.63;;;;;;;-0.54;100.00;101812.91;5273874;28;20025;-69
2022/01/06 09:36:54;;;;;;;68.78;24.15;;;;;;;-0.63;100.00;101813.94;5272966;28;21245;-69
2022/01/06 09:39:26;;;;;;;62.28;22.52;;;;;;;-0.52;100.00;101818.13;5273837;28;20370;-69
2022/01/06 09:41:57;;;;;;;61.00;21.38;;;;;;;-0.54;100.00;101819.91;5270679;28;20156;-69
2022/01/06 09:44:29;;;;;;;64.00;21.95;;;;;;;-0.48;100.00;101825.06;5272948;28;20387;-69
2022/01/06 09:47:02;;;;;;;55.72;20.90;;;;;;;-0.45;100.00;101818.03;5270562;28;20030;-69
2022/01/06 09:49:37;;;;;;;63.10;21.20;;;;;;;-0.35;100.00;101824.00;5274718;28;20040;-69
2022/01/06 09:52:09;;;;;;;56.83;22.17;;;;;;;-0.17;100.00;101821.97;5273056;28;20470;-69
2022/01/06 09:54:41;;;;;;;67.53;23.83;;;;;;;-0.12;100.00;101822.78;5272681;28;20060;-69
2022/01/06 09:57:14;;;;;;;60.47;22.00;;;;;;;-0.09;100.00;101823.59;5273794;28;20154;-69
2022/01/06 09:59:45;;;;;;;59.50;22.17;;;;;;;-0.09;100.00;101825.34;5266303;28;20043;-69
2022/01/06 10:02:16;;;;;;;61.72;22.17;;;;;;;0.00;100.00;101817.34;5269301;28;20028;-69
2022/01/06 10:04:59;;;;;;;63.70;22.05;;;;;;;0.01;100.00;101826.94;5271764;28;20047;-69
2022/01/06 10:07:38;;;;;;;62.40;20.88;;;;;;;0.14;100.00;101820.56;5272898;28;20028;-69
2022/01/06 10:10:12;;;;;;;57.22;20.95;;;;;;;0.14;100.00;101817.09;5271208;28;20036;-69
2022/01/06 10:12:54;;;;;;;56.70;20.40;;;;;;;0.21;100.00;101823.94;5272187;28;20125;-69
2022/01/06 10:15:28;;;;;;;52.25;19.85;;;;;;;0.48;100.00;101819.09;5270520;28;20390;-69
2022/01/06 10:18:09;;;;;;;61.20;21.35;;;;;;;0.45;100.00;101819.16;5273195;28;20028;-69
2022/01/06 10:20:41;;;;;;;59.92;21.15;;;;;;;0.62;100.00;101809.19;5271895;28;20198;-69
2022/01/06 10:23:15;;;;;;;50.50;21.00;;;;;;;0.77;100.00;101814.16;5269572;28;20020;-69
2022/01/06 10:25:49;;;;;;;56.13;20.17;;;;;;;0.75;100.00;101813.31;5271937;28;20449;-69
2022/01/06 10:28:24;;;;;;;54.10;21.08;;;;;;;0.88;100.00;101819.19;5270460;28;20032;-69
2022/01/06 10:30:56;;;;;;;57.95;21.38;;;;;;;1.07;100.00;101818.78;5271989;28;20068;-69
2022/01/06 10:33:37;;;;;;;62.42;22.05;;;;;;;1.24;100.00;101811.41;5269629;28;20060;-69
2022/01/06 10:36:08;;;;;;;58.28;22.25;;;;;;;1.40;100.00;101803.16;5270648;28;20041;-69
2022/01/06 10:38:40;;;;;;;59.20;23.80;;;;;;;1.53;100.00;101808.13;5270306;28;20028;-69
2022/01/06 10:41:14;;;;;;;59.80;22.50;;;;;;;1.63;100.00;101818.41;5272308;28;20031;-69
2022/01/06 10:43:53;;;;;;;62.00;22.70;;;;;;;1.71;100.00;101814.72;5269397;28;20036;-69
2022/01/06 10:46:42;;;;;;;57.80;21.50;;;;;;;1.69;100.00;101810.41;5273828;28;20031;-69
2022/01/06 10:49:16;;;;;;;59.03;21.55;;;;;;;1.76;100.00;101809.34;5272056;28;20043;-69
2022/01/06 10:51:50;;;;;;;58.42;19.77;;;;;;;1.74;100.00;101811.13;5269220;28;20089;-69
2022/01/06 10:54:23;;;;;;;58.58;19.25;;;;;;;1.72;100.00;101805.91;5272306;28;20036;-69
2022/01/06 10:56:58;;;;;;;51.55;18.40;;;;;;;1.87;100.00;101809.09;5272409;28;20032;-70
2022/01/06 10:59:33;;;;;;;47.53;18.63;;;;;;;1.72;100.00;101808.53;5266586;28;20056;-70
2022/01/06 11:02:05;;;;;;;44.70;17.20;;;;;;;1.80;100.00;101813.63;5264124;28;20028;-70
2022/01/06 11:04:37;;;;;;;46.47;17.50;;;;;;;1.83;100.00;101799.53;5268484;28;20421;-70
2022/01/06 11:07:09;;;;;;;51.28;16.70;;;;;;;1.84;100.00;101804.78;5270187;28;20083;-70
2022/01/06 11:09:46;;;;;;;49.17;17.67;;;;;;;1.79;100.00;101804.00;5267193;28;20082;-71
2022/01/06 11:12:26;;;;;;;41.47;16.33;;;;;;;1.92;100.00;101799.31;5270115;28;20044;-71
2022/01/06 11:14:59;;;;;;;36.35;16.25;;;;;;;1.88;100.00;101797.63;5270700;28;20588;-71
2022/01/06 11:17:31;;;;;;;46.25;16.58;;;;;;;1.98;100.00;101791.25;5267538;28;20509;-70
2022/01/06 11:20:03;;;;;;;38.70;15.90;;;;;;;2.00;100.00;101786.81;5268475;28;20025;-70
2022/01/06 11:22:47;;;;;;;44.78;16.38;;;;;;;2.05;100.00;101787.56;5270070;28;20059;-70
2022/01/06 11:25:31;;;;;;;40.22;17.77;;;;;;;2.04;100.00;101784.97;5270737;28;20059;-71
2022/01/06 11:28:12;;;;;;;43.25;16.63;;;;;;;2.04;100.00;101795.50;5270634;28;20036;-71
2022/01/06 11:30:45;;;;;;;42.85;16.92;;;;;;;2.04;100.00;101791.09;5260030;28;20107;-71
2022/01/06 11:33:18;;;;;;;41.65;16.30;;;;;;;2.05;100.00;101790.22;5267921;28;20028;-71
2022/01/06 11:35:55;;;;;;;44.55;16.80;;;;;;;2.12;100.00;101786.47;5270877;28;20970;-71
2022/01/06 11:38:27;;;;;;;43.50;15.90;;;;;;;2.19;100.00;101784.56;5270952;28;20063;-71
2022/01/06 11:41:09;;;;;;;43.88;16.92;;;;;;;2.22;100.00;101791.50;5270639;28;20111;-71
2022/01/06 11:43:47;;;;;;;45.25;16.58;;;;;;;2.24;100.00;101787.06;5267625;28;20039;-71